sensor_id;sensor_type;location;lat;lon;timestamp;temperature;humidity
17599;DHT22;8918;52.092;5.232;2024-03-07T00:02:04;5.50;99.90
17599;DHT22;8918;52.092;5.232;2024-03-07T00:04:31;5.40;99.90
17599;DHT22;8918;52.092;5.232;2024-03-07T00:06:56;5.40;99.90
17599;DHT22;8918;52.092;5.232;2024-03-07T00:09:22;5.40;99.90
17599;DHT22;8918;52.092;5.232;2024-03-07T00:11:50;5.30;99.90
17599;DHT22;8918;52.092;5.232;2024-03-07T00:14:16;5.30;99.90
17599;DHT22;8918;52.092;5.232;2024-03-07T00:16:41;5.30;99.90
17599;DHT22;8918;52.092;5.232;2024-03-07T00:19:07;5.20;99.90
17599;DHT22;8918;52.092;5.232;2024-03-07T00:21:33;5.30;99.90
17599;DHT22;8918;52.092;5.232;2024-03-07T00:23:58;5.30;99.90
17599;DHT22;8918;52.092;5.232;2024-03-07T00:26:25;5.30;99.90
17599;DHT22;8918;52.092;5.232;2024-03-07T00:28:50;5.20;99.90
17599;DHT22;8918;52.092;5.232;2024-03-07T00:31:16;5.20;99.90
17599;DHT22;8918;52.092;5.232;2024-03-07T00:33:42;5.10;99.90
17599;DHT22;8918;52.092;5.232;2024-03-07T00:36:08;5.10;99.90
17599;DHT22;8918;52.092;5.232;2024-03-07T00:38:33;5.10;99.90
17599;DHT22;8918;52.092;5.232;2024-03-07T00:41:00;5.00;99.90
17599;DHT22;8918;52.092;5.232;2024-03-07T00:43:25;5.00;99.90
17599;DHT22;8918;52.092;5.232;2024-03-07T00:45:51;5.00;99.90
17599;DHT22;8918;52.092;5.232;2024-03-07T00:48:17;5.00;99.90
17599;DHT22;8918;52.092;5.232;2024-03-07T00:50:43;4.90;99.90
17599;DHT22;8918;52.092;5.232;2024-03-07T00:53:09;4.90;99.90
17599;DHT22;8918;52.092;5.232;2024-03-07T00:55:35;4.90;99.90
17599;DHT22;8918;52.092;5.232;2024-03-07T00:58:01;4.90;99.90
17599;DHT22;8918;52.092;5.232;2024-03-07T01:00:28;4.80;99.90
17599;DHT22;8918;52.092;5.232;2024-03-07T01:02:53;4.80;99.90
17599;DHT22;8918;52.092;5.232;2024-03-07T01:05:20;4.70;99.90
17599;DHT22;8918;52.092;5.232;2024-03-07T01:07:45;4.70;99.90
17599;DHT22;8918;52.092;5.232;2024-03-07T01:10:15;4.70;99.90
17599;DHT22;8918;52.092;5.232;2024-03-07T01:12:40;4.70;99.90
17599;DHT22;8918;52.092;5.232;2024-03-07T01:15:09;4.70;99.90
17599;DHT22;8918;52.092;5.232;2024-03-07T01:17:35;4.70;99.90
17599;DHT22;8918;52.092;5.232;2024-03-07T01:20:01;4.60;99.90
17599;DHT22;8918;52.092;5.232;2024-03-07T01:22:27;4.60;99.90
17599;DHT22;8918;52.092;5.232;2024-03-07T01:24:53;4.60;99.90
17599;DHT22;8918;52.092;5.232;2024-03-07T01:27:19;4.50;99.90
17599;DHT22;8918;52.092;5.232;2024-03-07T01:29:45;4.50;99.90
17599;DHT22;8918;52.092;5.232;2024-03-07T01:32:11;4.50;99.90
17599;DHT22;8918;52.092;5.232;2024-03-07T01:34:36;4.40;99.90
17599;DHT22;8918;52.092;5.232;2024-03-07T01:37:02;4.40;99.90
17599;DHT22;8918;52.092;5.232;2024-03-07T01:39:28;4.40;99.90
17599;DHT22;8918;52.092;5.232;2024-03-07T01:41:53;4.40;99.90
17599;DHT22;8918;52.092;5.232;2024-03-07T01:44:19;4.30;99.90
17599;DHT22;8918;52.092;5.232;2024-03-07T01:46:45;4.30;99.90
17599;DHT22;8918;52.092;5.232;2024-03-07T01:49:11;4.20;99.90
17599;DHT22;8918;52.092;5.232;2024-03-07T01:51:37;4.30;99.90
17599;DHT22;8918;52.092;5.232;2024-03-07T01:54:03;4.20;99.90
17599;DHT22;8918;52.092;5.232;2024-03-07T01:56:30;4.20;99.90
17599;DHT22;8918;52.092;5.232;2024-03-07T01:58:56;4.20;99.90
17599;DHT22;8918;52.092;5.232;2024-03-07T02:01:22;4.20;99.90
17599;DHT22;8918;52.092;5.232;2024-03-07T02:03:48;4.10;99.90
17599;DHT22;8918;52.092;5.232;2024-03-07T02:06:14;4.10;99.90
17599;DHT22;8918;52.092;5.232;2024-03-07T02:08:40;4.10;99.90
17599;DHT22;8918;52.092;5.232;2024-03-07T02:11:06;4.10;99.90
17599;DHT22;8918;52.092;5.232;2024-03-07T02:13:31;4.10;99.90
17599;DHT22;8918;52.092;5.232;2024-03-07T02:15:57;4.10;99.90
17599;DHT22;8918;52.092;5.232;2024-03-07T02:18:24;4.10;99.90
17599;DHT22;8918;52.092;5.232;2024-03-07T02:20:50;4.10;99.90
17599;DHT22;8918;52.092;5.232;2024-03-07T02:23:15;4.10;99.90
17599;DHT22;8918;52.092;5.232;2024-03-07T02:25:41;4.10;99.90
17599;DHT22;8918;52.092;5.232;2024-03-07T02:28:07;4.20;99.90
17599;DHT22;8918;52.092;5.232;2024-03-07T02:30:33;4.20;99.90
17599;DHT22;8918;52.092;5.232;2024-03-07T02:32:59;4.30;99.90
17599;DHT22;8918;52.092;5.232;2024-03-07T02:35:35;4.40;99.90
17599;DHT22;8918;52.092;5.232;2024-03-07T02:38:04;4.40;99.90
17599;DHT22;8918;52.092;5.232;2024-03-07T02:40:31;4.40;99.90
17599;DHT22;8918;52.092;5.232;2024-03-07T02:42:56;4.50;99.90
17599;DHT22;8918;52.092;5.232;2024-03-07T02:45:23;4.50;99.90
17599;DHT22;8918;52.092;5.232;2024-03-07T02:47:48;4.60;99.90
17599;DHT22;8918;52.092;5.232;2024-03-07T02:50:14;4.60;99.90
17599;DHT22;8918;52.092;5.232;2024-03-07T02:52:40;4.70;99.90
17599;DHT22;8918;52.092;5.232;2024-03-07T02:55:06;4.70;99.90
17599;DHT22;8918;52.092;5.232;2024-03-07T02:57:36;4.80;99.90
17599;DHT22;8918;52.092;5.232;2024-03-07T03:00:04;4.80;99.90
17599;DHT22;8918;52.092;5.232;2024-03-07T03:02:39;4.80;99.90
17599;DHT22;8918;52.092;5.232;2024-03-07T03:05:05;4.80;99.90
17599;DHT22;8918;52.092;5.232;2024-03-07T03:07:33;4.80;99.90
17599;DHT22;8918;52.092;5.232;2024-03-07T03:09:59;4.70;99.90
17599;DHT22;8918;52.092;5.232;2024-03-07T03:12:24;4.60;99.90
17599;DHT22;8918;52.092;5.232;2024-03-07T03:14:51;4.50;99.90
17599;DHT22;8918;52.092;5.232;2024-03-07T03:17:18;4.50;99.90
17599;DHT22;8918;52.092;5.232;2024-03-07T03:19:44;4.40;99.90
17599;DHT22;8918;52.092;5.232;2024-03-07T03:22:11;4.30;99.90
17599;DHT22;8918;52.092;5.232;2024-03-07T03:24:36;4.30;99.90
17599;DHT22;8918;52.092;5.232;2024-03-07T03:27:02;4.30;99.90
17599;DHT22;8918;52.092;5.232;2024-03-07T03:29:27;4.20;99.90
17599;DHT22;8918;52.092;5.232;2024-03-07T03:31:55;4.10;99.90
17599;DHT22;8918;52.092;5.232;2024-03-07T03:34:20;4.10;99.90
17599;DHT22;8918;52.092;5.232;2024-03-07T03:36:46;4.10;99.90
17599;DHT22;8918;52.092;5.232;2024-03-07T03:39:12;4.10;99.90
17599;DHT22;8918;52.092;5.232;2024-03-07T03:41:38;4.00;99.90
17599;DHT22;8918;52.092;5.232;2024-03-07T03:44:04;4.00;99.90
17599;DHT22;8918;52.092;5.232;2024-03-07T03:46:29;4.00;99.90
17599;DHT22;8918;52.092;5.232;2024-03-07T03:48:55;3.90;99.90
17599;DHT22;8918;52.092;5.232;2024-03-07T03:51:20;3.90;99.90
17599;DHT22;8918;52.092;5.232;2024-03-07T03:53:47;3.90;99.90
17599;DHT22;8918;52.092;5.232;2024-03-07T03:56:13;3.90;99.90
17599;DHT22;8918;52.092;5.232;2024-03-07T03:58:39;3.90;99.90
17599;DHT22;8918;52.092;5.232;2024-03-07T04:01:05;3.90;99.90
17599;DHT22;8918;52.092;5.232;2024-03-07T04:03:33;3.80;99.90
17599;DHT22;8918;52.092;5.232;2024-03-07T04:05:58;3.80;99.90
17599;DHT22;8918;52.092;5.232;2024-03-07T04:08:24;3.80;99.90
17599;DHT22;8918;52.092;5.232;2024-03-07T04:10:50;3.80;99.90
17599;DHT22;8918;52.092;5.232;2024-03-07T04:13:15;3.70;99.90
17599;DHT22;8918;52.092;5.232;2024-03-07T04:15:41;3.70;99.90
17599;DHT22;8918;52.092;5.232;2024-03-07T04:18:06;3.70;99.90
17599;DHT22;8918;52.092;5.232;2024-03-07T04:20:32;3.70;99.90
17599;DHT22;8918;52.092;5.232;2024-03-07T04:22:58;3.70;99.90
17599;DHT22;8918;52.092;5.232;2024-03-07T04:25:23;3.70;99.90
17599;DHT22;8918;52.092;5.232;2024-03-07T04:27:50;3.70;99.90
17599;DHT22;8918;52.092;5.232;2024-03-07T04:30:16;3.70;99.90
17599;DHT22;8918;52.092;5.232;2024-03-07T04:32:42;3.60;99.90
17599;DHT22;8918;52.092;5.232;2024-03-07T04:35:08;3.60;99.90
17599;DHT22;8918;52.092;5.232;2024-03-07T04:37:36;3.60;99.90
17599;DHT22;8918;52.092;5.232;2024-03-07T04:40:04;3.60;99.90
17599;DHT22;8918;52.092;5.232;2024-03-07T04:42:30;3.60;99.90
17599;DHT22;8918;52.092;5.232;2024-03-07T04:44:56;3.60;99.90
17599;DHT22;8918;52.092;5.232;2024-03-07T04:47:21;3.60;99.90
17599;DHT22;8918;52.092;5.232;2024-03-07T04:49:47;3.60;99.90
17599;DHT22;8918;52.092;5.232;2024-03-07T04:52:12;3.60;99.90
17599;DHT22;8918;52.092;5.232;2024-03-07T04:54:38;3.60;99.90
17599;DHT22;8918;52.092;5.232;2024-03-07T04:57:04;3.50;99.90
17599;DHT22;8918;52.092;5.232;2024-03-07T04:59:31;3.50;99.90
17599;DHT22;8918;52.092;5.232;2024-03-07T05:01:56;3.50;99.90
17599;DHT22;8918;52.092;5.232;2024-03-07T05:04:23;3.50;99.90
17599;DHT22;8918;52.092;5.232;2024-03-07T05:06:49;3.50;99.90
17599;DHT22;8918;52.092;5.232;2024-03-07T05:09:14;3.50;99.90
17599;DHT22;8918;52.092;5.232;2024-03-07T05:11:50;3.50;99.90
17599;DHT22;8918;52.092;5.232;2024-03-07T05:14:20;3.50;99.90
17599;DHT22;8918;52.092;5.232;2024-03-07T05:16:47;3.40;99.90
17599;DHT22;8918;52.092;5.232;2024-03-07T05:19:30;3.50;99.90
17599;DHT22;8918;52.092;5.232;2024-03-07T05:21:56;3.50;99.90
17599;DHT22;8918;52.092;5.232;2024-03-07T05:24:22;3.40;99.90
17599;DHT22;8918;52.092;5.232;2024-03-07T05:26:47;3.50;99.90
17599;DHT22;8918;52.092;5.232;2024-03-07T05:29:13;3.40;99.90
17599;DHT22;8918;52.092;5.232;2024-03-07T05:31:39;3.40;99.90
17599;DHT22;8918;52.092;5.232;2024-03-07T05:34:12;3.40;99.90
17599;DHT22;8918;52.092;5.232;2024-03-07T05:36:38;3.40;99.90
17599;DHT22;8918;52.092;5.232;2024-03-07T05:39:11;3.40;99.90
17599;DHT22;8918;52.092;5.232;2024-03-07T05:41:38;3.40;99.90
17599;DHT22;8918;52.092;5.232;2024-03-07T05:44:04;3.30;99.90
17599;DHT22;8918;52.092;5.232;2024-03-07T05:46:35;3.30;99.90
17599;DHT22;8918;52.092;5.232;2024-03-07T05:49:02;3.30;99.90
17599;DHT22;8918;52.092;5.232;2024-03-07T05:51:28;3.30;99.90
17599;DHT22;8918;52.092;5.232;2024-03-07T05:53:54;3.30;99.90
17599;DHT22;8918;52.092;5.232;2024-03-07T05:56:19;3.30;99.90
17599;DHT22;8918;52.092;5.232;2024-03-07T05:58:45;3.30;99.90
17599;DHT22;8918;52.092;5.232;2024-03-07T06:01:10;3.20;99.90
17599;DHT22;8918;52.092;5.232;2024-03-07T06:03:37;3.20;99.90
17599;DHT22;8918;52.092;5.232;2024-03-07T06:06:02;3.20;99.90
17599;DHT22;8918;52.092;5.232;2024-03-07T06:08:30;3.10;99.90
17599;DHT22;8918;52.092;5.232;2024-03-07T06:10:55;3.10;99.90
17599;DHT22;8918;52.092;5.232;2024-03-07T06:13:21;3.10;99.90
17599;DHT22;8918;52.092;5.232;2024-03-07T06:15:47;3.10;99.90
17599;DHT22;8918;52.092;5.232;2024-03-07T06:18:13;3.10;99.90
17599;DHT22;8918;52.092;5.232;2024-03-07T06:20:43;3.10;99.90
17599;DHT22;8918;52.092;5.232;2024-03-07T06:23:09;3.10;99.90
17599;DHT22;8918;52.092;5.232;2024-03-07T06:25:37;3.10;99.90
17599;DHT22;8918;52.092;5.232;2024-03-07T06:28:13;3.10;99.90
17599;DHT22;8918;52.092;5.232;2024-03-07T06:30:40;3.10;99.90
17599;DHT22;8918;52.092;5.232;2024-03-07T06:33:06;3.10;99.90
17599;DHT22;8918;52.092;5.232;2024-03-07T06:35:32;3.10;99.90
17599;DHT22;8918;52.092;5.232;2024-03-07T06:38:02;3.10;99.90
17599;DHT22;8918;52.092;5.232;2024-03-07T06:40:28;3.10;99.90
17599;DHT22;8918;52.092;5.232;2024-03-07T06:42:55;3.10;99.90
17599;DHT22;8918;52.092;5.232;2024-03-07T06:45:20;3.10;99.90
17599;DHT22;8918;52.092;5.232;2024-03-07T06:47:46;3.20;99.90
17599;DHT22;8918;52.092;5.232;2024-03-07T06:50:12;3.20;99.90
17599;DHT22;8918;52.092;5.232;2024-03-07T06:52:42;3.20;99.90
17599;DHT22;8918;52.092;5.232;2024-03-07T06:55:10;3.30;99.90
17599;DHT22;8918;52.092;5.232;2024-03-07T06:57:36;3.30;99.90
17599;DHT22;8918;52.092;5.232;2024-03-07T07:00:02;3.30;99.90
17599;DHT22;8918;52.092;5.232;2024-03-07T07:02:38;3.30;99.90
17599;DHT22;8918;52.092;5.232;2024-03-07T07:05:06;3.30;99.90
17599;DHT22;8918;52.092;5.232;2024-03-07T07:07:40;3.30;99.90
17599;DHT22;8918;52.092;5.232;2024-03-07T07:10:08;3.30;99.90
17599;DHT22;8918;52.092;5.232;2024-03-07T07:12:37;3.40;99.90
17599;DHT22;8918;52.092;5.232;2024-03-07T07:15:02;3.40;99.90
17599;DHT22;8918;52.092;5.232;2024-03-07T07:17:29;3.40;99.90
17599;DHT22;8918;52.092;5.232;2024-03-07T07:19:55;3.50;99.90
17599;DHT22;8918;52.092;5.232;2024-03-07T07:22:21;3.60;99.90
17599;DHT22;8918;52.092;5.232;2024-03-07T07:24:47;3.60;99.90
17599;DHT22;8918;52.092;5.232;2024-03-07T07:27:12;3.60;99.90
17599;DHT22;8918;52.092;5.232;2024-03-07T07:29:38;3.60;99.90
17599;DHT22;8918;52.092;5.232;2024-03-07T07:32:04;3.70;99.90
17599;DHT22;8918;52.092;5.232;2024-03-07T07:34:30;3.80;99.90
17599;DHT22;8918;52.092;5.232;2024-03-07T07:36:56;3.80;99.90
17599;DHT22;8918;52.092;5.232;2024-03-07T07:39:22;3.90;99.90
17599;DHT22;8918;52.092;5.232;2024-03-07T07:41:47;3.90;99.90
17599;DHT22;8918;52.092;5.232;2024-03-07T07:44:13;3.90;99.90
17599;DHT22;8918;52.092;5.232;2024-03-07T07:46:39;4.00;99.90
17599;DHT22;8918;52.092;5.232;2024-03-07T07:49:06;4.10;99.90
17599;DHT22;8918;52.092;5.232;2024-03-07T07:51:31;4.10;99.90
17599;DHT22;8918;52.092;5.232;2024-03-07T07:53:57;4.20;99.90
17599;DHT22;8918;52.092;5.232;2024-03-07T07:56:23;4.30;99.90
17599;DHT22;8918;52.092;5.232;2024-03-07T07:58:50;4.30;99.90
17599;DHT22;8918;52.092;5.232;2024-03-07T08:01:17;4.40;99.90
17599;DHT22;8918;52.092;5.232;2024-03-07T08:03:45;4.40;99.90
17599;DHT22;8918;52.092;5.232;2024-03-07T08:06:10;4.40;99.90
17599;DHT22;8918;52.092;5.232;2024-03-07T08:08:36;4.50;99.90
17599;DHT22;8918;52.092;5.232;2024-03-07T08:11:02;4.50;99.90
17599;DHT22;8918;52.092;5.232;2024-03-07T08:13:27;4.60;99.90
17599;DHT22;8918;52.092;5.232;2024-03-07T08:15:53;4.70;99.90
17599;DHT22;8918;52.092;5.232;2024-03-07T08:18:19;4.80;99.90
17599;DHT22;8918;52.092;5.232;2024-03-07T08:20:46;4.90;99.90
17599;DHT22;8918;52.092;5.232;2024-03-07T08:23:12;4.90;99.90
17599;DHT22;8918;52.092;5.232;2024-03-07T08:25:40;5.10;99.90
17599;DHT22;8918;52.092;5.232;2024-03-07T08:28:06;5.10;99.90
17599;DHT22;8918;52.092;5.232;2024-03-07T08:30:32;5.10;99.90
17599;DHT22;8918;52.092;5.232;2024-03-07T08:32:58;5.20;99.90
17599;DHT22;8918;52.092;5.232;2024-03-07T08:35:24;5.30;99.90
17599;DHT22;8918;52.092;5.232;2024-03-07T08:37:52;5.40;99.90
17599;DHT22;8918;52.092;5.232;2024-03-07T08:40:25;5.50;99.90
17599;DHT22;8918;52.092;5.232;2024-03-07T08:42:53;5.60;99.90
17599;DHT22;8918;52.092;5.232;2024-03-07T08:45:21;5.70;99.90
17599;DHT22;8918;52.092;5.232;2024-03-07T08:47:49;5.80;99.90
17599;DHT22;8918;52.092;5.232;2024-03-07T08:50:15;6.00;99.90
17599;DHT22;8918;52.092;5.232;2024-03-07T08:52:46;6.00;99.90
17599;DHT22;8918;52.092;5.232;2024-03-07T08:55:14;6.10;99.90
17599;DHT22;8918;52.092;5.232;2024-03-07T08:57:40;6.10;99.90
17599;DHT22;8918;52.092;5.232;2024-03-07T09:00:07;6.20;99.90
17599;DHT22;8918;52.092;5.232;2024-03-07T09:02:40;6.30;99.90
17599;DHT22;8918;52.092;5.232;2024-03-07T09:05:06;6.50;99.90
17599;DHT22;8918;52.092;5.232;2024-03-07T09:07:32;6.60;99.90
17599;DHT22;8918;52.092;5.232;2024-03-07T09:09:58;6.70;99.90
17599;DHT22;8918;52.092;5.232;2024-03-07T09:12:23;6.80;99.90
17599;DHT22;8918;52.092;5.232;2024-03-07T09:14:51;6.90;99.90
17599;DHT22;8918;52.092;5.232;2024-03-07T09:17:17;7.10;99.90
17599;DHT22;8918;52.092;5.232;2024-03-07T09:19:43;7.20;99.90
17599;DHT22;8918;52.092;5.232;2024-03-07T09:22:09;7.20;99.90
17599;DHT22;8918;52.092;5.232;2024-03-07T09:24:34;7.20;99.90
17599;DHT22;8918;52.092;5.232;2024-03-07T09:27:00;7.30;99.90
17599;DHT22;8918;52.092;5.232;2024-03-07T09:29:26;7.50;99.90
17599;DHT22;8918;52.092;5.232;2024-03-07T09:31:53;7.70;99.90
17599;DHT22;8918;52.092;5.232;2024-03-07T09:34:20;7.80;99.90
17599;DHT22;8918;52.092;5.232;2024-03-07T09:36:47;7.90;99.90
17599;DHT22;8918;52.092;5.232;2024-03-07T09:39:12;8.10;99.90
17599;DHT22;8918;52.092;5.232;2024-03-07T09:41:38;8.20;99.90
17599;DHT22;8918;52.092;5.232;2024-03-07T09:44:09;8.40;99.90
17599;DHT22;8918;52.092;5.232;2024-03-07T09:46:38;8.50;99.90
17599;DHT22;8918;52.092;5.232;2024-03-07T09:49:04;8.80;99.90
17599;DHT22;8918;52.092;5.232;2024-03-07T09:51:35;9.00;99.90
17599;DHT22;8918;52.092;5.232;2024-03-07T09:54:01;9.00;99.90
17599;DHT22;8918;52.092;5.232;2024-03-07T09:56:28;9.10;99.90
17599;DHT22;8918;52.092;5.232;2024-03-07T09:58:57;9.20;99.90
17599;DHT22;8918;52.092;5.232;2024-03-07T10:01:26;9.10;99.90
17599;DHT22;8918;52.092;5.232;2024-03-07T10:04:02;9.20;99.90
17599;DHT22;8918;52.092;5.232;2024-03-07T10:06:37;9.40;99.90
17599;DHT22;8918;52.092;5.232;2024-03-07T10:09:04;9.50;99.90
17599;DHT22;8918;52.092;5.232;2024-03-07T10:11:30;9.60;99.90
17599;DHT22;8918;52.092;5.232;2024-03-07T10:13:56;9.60;99.90
17599;DHT22;8918;52.092;5.232;2024-03-07T10:16:21;9.70;99.90
17599;DHT22;8918;52.092;5.232;2024-03-07T10:18:48;9.50;99.90
17599;DHT22;8918;52.092;5.232;2024-03-07T10:21:19;9.80;99.90
17599;DHT22;8918;52.092;5.232;2024-03-07T10:23:45;9.80;99.90
17599;DHT22;8918;52.092;5.232;2024-03-07T10:26:10;10.20;99.90
17599;DHT22;8918;52.092;5.232;2024-03-07T10:28:37;10.30;99.90
17599;DHT22;8918;52.092;5.232;2024-03-07T10:31:04;10.50;99.90
17599;DHT22;8918;52.092;5.232;2024-03-07T10:33:34;10.80;99.90
17599;DHT22;8918;52.092;5.232;2024-03-07T10:36:00;11.10;99.90
17599;DHT22;8918;52.092;5.232;2024-03-07T10:38:27;11.10;99.90
17599;DHT22;8918;52.092;5.232;2024-03-07T10:40:54;11.10;99.90
17599;DHT22;8918;52.092;5.232;2024-03-07T10:43:26;11.40;99.90
17599;DHT22;8918;52.092;5.232;2024-03-07T10:45:54;12.10;99.90
17599;DHT22;8918;52.092;5.232;2024-03-07T10:48:24;13.60;99.90
17599;DHT22;8918;52.092;5.232;2024-03-07T10:51:05;15.20;99.90
17599;DHT22;8918;52.092;5.232;2024-03-07T10:56:22;16.90;99.90
17599;DHT22;8918;52.092;5.232;2024-03-07T11:01:23;16.80;99.90
17599;DHT22;8918;52.092;5.232;2024-03-07T11:03:49;16.50;99.90
17599;DHT22;8918;52.092;5.232;2024-03-07T11:06:17;16.40;99.90
17599;DHT22;8918;52.092;5.232;2024-03-07T11:08:44;16.50;99.90
17599;DHT22;8918;52.092;5.232;2024-03-07T11:11:11;16.40;99.90
17599;DHT22;8918;52.092;5.232;2024-03-07T11:13:38;16.60;99.90
17599;DHT22;8918;52.092;5.232;2024-03-07T11:16:05;17.00;99.90
17599;DHT22;8918;52.092;5.232;2024-03-07T11:18:32;18.00;99.90
17599;DHT22;8918;52.092;5.232;2024-03-07T11:20:57;18.00;99.90
17599;DHT22;8918;52.092;5.232;2024-03-07T11:23:30;18.10;99.10
17599;DHT22;8918;52.092;5.232;2024-03-07T11:26:05;17.80;99.50
17599;DHT22;8918;52.092;5.232;2024-03-07T11:28:43;16.90;99.60
17599;DHT22;8918;52.092;5.232;2024-03-07T11:31:27;16.00;99.90
17599;DHT22;8918;52.092;5.232;2024-03-07T11:34:14;15.60;99.90
17599;DHT22;8918;52.092;5.232;2024-03-07T11:36:47;15.40;99.90
17599;DHT22;8918;52.092;5.232;2024-03-07T11:39:47;16.10;99.90
17599;DHT22;8918;52.092;5.232;2024-03-07T11:42:23;16.50;99.90
17599;DHT22;8918;52.092;5.232;2024-03-07T11:44:51;16.50;99.90
17599;DHT22;8918;52.092;5.232;2024-03-07T11:47:17;15.40;99.90
17599;DHT22;8918;52.092;5.232;2024-03-07T11:49:44;14.40;99.90
17599;DHT22;8918;52.092;5.232;2024-03-07T11:52:14;13.60;99.90
17599;DHT22;8918;52.092;5.232;2024-03-07T11:54:42;13.00;99.90
17599;DHT22;8918;52.092;5.232;2024-03-07T11:57:18;13.20;99.90
17599;DHT22;8918;52.092;5.232;2024-03-07T11:59:58;14.10;99.90
17599;DHT22;8918;52.092;5.232;2024-03-07T12:02:27;15.40;99.90
17599;DHT22;8918;52.092;5.232;2024-03-07T12:04:53;15.80;99.90
17599;DHT22;8918;52.092;5.232;2024-03-07T12:07:19;15.80;99.90
17599;DHT22;8918;52.092;5.232;2024-03-07T12:09:48;16.40;99.90
17599;DHT22;8918;52.092;5.232;2024-03-07T12:12:19;15.80;99.90
17599;DHT22;8918;52.092;5.232;2024-03-07T12:14:47;15.00;99.90
17599;DHT22;8918;52.092;5.232;2024-03-07T12:17:16;15.10;99.90
17599;DHT22;8918;52.092;5.232;2024-03-07T12:19:43;15.80;99.90
17599;DHT22;8918;52.092;5.232;2024-03-07T12:22:09;16.50;99.90
17599;DHT22;8918;52.092;5.232;2024-03-07T12:24:41;16.30;99.90
17599;DHT22;8918;52.092;5.232;2024-03-07T12:27:11;16.40;99.90
17599;DHT22;8918;52.092;5.232;2024-03-07T12:29:39;16.00;99.90
17599;DHT22;8918;52.092;5.232;2024-03-07T12:32:06;16.20;99.90
17599;DHT22;8918;52.092;5.232;2024-03-07T12:34:36;17.00;99.90
17599;DHT22;8918;52.092;5.232;2024-03-07T12:37:07;17.50;99.90
17599;DHT22;8918;52.092;5.232;2024-03-07T12:39:34;18.30;99.80
17599;DHT22;8918;52.092;5.232;2024-03-07T12:42:18;18.00;99.70
17599;DHT22;8918;52.092;5.232;2024-03-07T12:44:46;17.90;99.90
17599;DHT22;8918;52.092;5.232;2024-03-07T12:47:12;17.50;99.80
17599;DHT22;8918;52.092;5.232;2024-03-07T12:49:39;17.30;99.80
17599;DHT22;8918;52.092;5.232;2024-03-07T12:52:05;16.60;99.70
17599;DHT22;8918;52.092;5.232;2024-03-07T12:54:36;16.20;99.90
17599;DHT22;8918;52.092;5.232;2024-03-07T12:57:11;16.20;99.90
17599;DHT22;8918;52.092;5.232;2024-03-07T12:59:40;16.70;99.90
17599;DHT22;8918;52.092;5.232;2024-03-07T13:02:11;16.90;99.90
17599;DHT22;8918;52.092;5.232;2024-03-07T13:04:41;16.70;99.90
17599;DHT22;8918;52.092;5.232;2024-03-07T13:07:07;16.20;99.90
17599;DHT22;8918;52.092;5.232;2024-03-07T13:09:34;16.10;99.90
17599;DHT22;8918;52.092;5.232;2024-03-07T13:12:00;15.90;99.90
17599;DHT22;8918;52.092;5.232;2024-03-07T13:14:33;16.00;99.90
17599;DHT22;8918;52.092;5.232;2024-03-07T13:16:59;16.00;99.90
17599;DHT22;8918;52.092;5.232;2024-03-07T13:19:26;15.90;99.90
17599;DHT22;8918;52.092;5.232;2024-03-07T13:21:52;16.30;99.90
17599;DHT22;8918;52.092;5.232;2024-03-07T13:24:19;16.50;99.90
17599;DHT22;8918;52.092;5.232;2024-03-07T13:26:45;16.60;99.90
17599;DHT22;8918;52.092;5.232;2024-03-07T13:29:13;16.80;99.90
17599;DHT22;8918;52.092;5.232;2024-03-07T13:31:40;17.40;99.90
17599;DHT22;8918;52.092;5.232;2024-03-07T13:34:08;16.90;99.90
17599;DHT22;8918;52.092;5.232;2024-03-07T13:36:41;16.40;99.90
17599;DHT22;8918;52.092;5.232;2024-03-07T13:39:08;16.30;99.90
17599;DHT22;8918;52.092;5.232;2024-03-07T13:41:41;16.30;99.90
17599;DHT22;8918;52.092;5.232;2024-03-07T13:44:07;16.20;99.90
17599;DHT22;8918;52.092;5.232;2024-03-07T13:46:33;16.30;99.90
17599;DHT22;8918;52.092;5.232;2024-03-07T13:49:03;15.80;99.90
17599;DHT22;8918;52.092;5.232;2024-03-07T13:51:42;15.40;99.90
17599;DHT22;8918;52.092;5.232;2024-03-07T13:54:21;15.00;99.90
17599;DHT22;8918;52.092;5.232;2024-03-07T13:57:29;15.00;99.90
17599;DHT22;8918;52.092;5.232;2024-03-07T14:00:30;15.10;99.90
17599;DHT22;8918;52.092;5.232;2024-03-07T14:06:04;16.10;99.90
17599;DHT22;8918;52.092;5.232;2024-03-07T14:08:55;15.70;99.90
17599;DHT22;8918;52.092;5.232;2024-03-07T14:11:37;15.30;99.90
17599;DHT22;8918;52.092;5.232;2024-03-07T14:22:33;14.90;99.90
17599;DHT22;8918;52.092;5.232;2024-03-07T14:25:45;14.90;99.90
17599;DHT22;8918;52.092;5.232;2024-03-07T14:31:07;14.00;99.90
17599;DHT22;8918;52.092;5.232;2024-03-07T14:36:16;13.30;99.90
17599;DHT22;8918;52.092;5.232;2024-03-07T14:38:53;12.80;99.90
17599;DHT22;8918;52.092;5.232;2024-03-07T14:41:24;12.60;99.90
17599;DHT22;8918;52.092;5.232;2024-03-07T14:44:05;12.20;99.90
17599;DHT22;8918;52.092;5.232;2024-03-07T14:46:32;11.80;99.90
17599;DHT22;8918;52.092;5.232;2024-03-07T14:48:59;11.50;99.90
17599;DHT22;8918;52.092;5.232;2024-03-07T14:51:24;11.40;99.90
17599;DHT22;8918;52.092;5.232;2024-03-07T14:53:51;11.40;99.90
17599;DHT22;8918;52.092;5.232;2024-03-07T14:56:17;11.30;99.90
17599;DHT22;8918;52.092;5.232;2024-03-07T14:58:47;11.20;99.90
17599;DHT22;8918;52.092;5.232;2024-03-07T15:01:13;11.00;99.90
17599;DHT22;8918;52.092;5.232;2024-03-07T15:03:39;11.00;99.90
17599;DHT22;8918;52.092;5.232;2024-03-07T15:06:08;11.00;99.90
17599;DHT22;8918;52.092;5.232;2024-03-07T15:08:35;11.00;99.90
17599;DHT22;8918;52.092;5.232;2024-03-07T15:11:23;10.80;99.90
17599;DHT22;8918;52.092;5.232;2024-03-07T15:13:52;10.70;99.90
17599;DHT22;8918;52.092;5.232;2024-03-07T15:16:19;10.50;99.90
17599;DHT22;8918;52.092;5.232;2024-03-07T15:18:45;10.50;99.90
17599;DHT22;8918;52.092;5.232;2024-03-07T15:21:11;10.50;99.90
17599;DHT22;8918;52.092;5.232;2024-03-07T15:23:41;10.60;99.90
17599;DHT22;8918;52.092;5.232;2024-03-07T15:26:07;10.80;99.90
17599;DHT22;8918;52.092;5.232;2024-03-07T15:28:33;10.90;99.90
17599;DHT22;8918;52.092;5.232;2024-03-07T15:31:01;10.90;99.90
17599;DHT22;8918;52.092;5.232;2024-03-07T15:33:34;10.90;99.90
17599;DHT22;8918;52.092;5.232;2024-03-07T15:36:00;11.10;99.90
17599;DHT22;8918;52.092;5.232;2024-03-07T15:38:25;11.20;99.90
17599;DHT22;8918;52.092;5.232;2024-03-07T15:40:59;11.30;99.90
17599;DHT22;8918;52.092;5.232;2024-03-07T15:43:27;11.70;99.90
17599;DHT22;8918;52.092;5.232;2024-03-07T15:45:53;11.80;99.90
17599;DHT22;8918;52.092;5.232;2024-03-07T15:48:19;11.80;99.90
17599;DHT22;8918;52.092;5.232;2024-03-07T15:50:49;11.80;99.90
17599;DHT22;8918;52.092;5.232;2024-03-07T15:53:15;11.60;99.90
17599;DHT22;8918;52.092;5.232;2024-03-07T15:55:41;11.50;99.90
17599;DHT22;8918;52.092;5.232;2024-03-07T15:58:09;11.50;99.90
17599;DHT22;8918;52.092;5.232;2024-03-07T16:00:36;11.50;99.90
17599;DHT22;8918;52.092;5.232;2024-03-07T16:03:04;11.20;99.90
17599;DHT22;8918;52.092;5.232;2024-03-07T16:05:34;10.90;99.90
17599;DHT22;8918;52.092;5.232;2024-03-07T16:08:02;10.70;99.90
17599;DHT22;8918;52.092;5.232;2024-03-07T16:10:32;10.60;99.90
17599;DHT22;8918;52.092;5.232;2024-03-07T16:12:59;10.60;99.90
17599;DHT22;8918;52.092;5.232;2024-03-07T16:15:25;10.40;99.90
17599;DHT22;8918;52.092;5.232;2024-03-07T16:17:52;10.20;99.90
17599;DHT22;8918;52.092;5.232;2024-03-07T16:20:25;10.00;99.90
17599;DHT22;8918;52.092;5.232;2024-03-07T16:22:51;9.80;99.90
17599;DHT22;8918;52.092;5.232;2024-03-07T16:25:17;9.70;99.90